الصفحة الرئيسية
METAR-TAF:

METAR-TAF

مطار :

بروناي, بروناي

دائرة عرض: 04-56N, خط طول: 114-56E, ارتفاع: 22 متر

مراقبة الطقس الحالي

تاريخ ووقت الإصدار 12 دقيقة قبل الساعة 14:30UTC
ريح 2 عقدة من الجنوب
درجة الحرارة 28°درجة مئوية
الرطوبة 74%
ضغط 1009 hPa
الرؤية: 7000 متر
غيوم قليلة على ارتفاع 1600 قدم
غيوم متفرقة على ارتفاع 14000 قدم
غيوم مفككة على ارتفاع 30000 قدم

METAR: WBSB 171430Z 19002KT 7000 FEW016 SCT140 BKN300 28/23 Q1009 NOSIG

زمن: 22:42 (14:42 UTC)

توقعات

تاريخ ووقت الإصدار 3ساعات و 42 دقيقة قبل الساعة 11:00UTC
التوقعات صالحة من17 الساعة 12 UTC إلى 18 الساعة 18 UTC
ريح 2 عقدة من الجنوب الغربي
الرؤية: 7000 متر
غيوم قليلة على ارتفاع 1500 قدم
أصبح
من 18 الساعة 03 UTC إلى 18 الساعة 05 UTC
ريح 10 عقدة من الشمال/الشمال الغربي
غيوم قليلة على ارتفاع 1600 قدم, مزنة ركامية.

TAF: WBSB 171100Z 1712/1818 22002KT 7000 FEW015 BECMG 1803/1805 33010KT FEW016CB

أرصاد الطقس والتوقعات من أكثر من 4000 مطار (تقارير الطقس للمطار METAR والتنبؤ بالطقس بالمطارTAF).

المحطات المتاحة هي النقط الصفراء والحمراء على الخريطة.

حرك المؤشر فوق النقطة لمعرفة اسم المحطة.

ثم انقر لمعرفة أرصاد وتوقعات الطقس.

لتغيير الخارطة: اضغط على الأزرار الخضراء مع رمز الصليب الأسود للتكبير. على الزر الأخضر مع شرطة للتصغير، أو على الأسهم الخضراء للخرائط المجاورة.


METAR-TAF: